Time;durP1;ratioP1;P1;durP2;ratioP2;P2;SDS_P1;SDS_P2;PMS_P1;PMS_P2;Temp;Humidity;BMP_temperature;BMP_pressure;BME280_temperature;BME280_humidity;BME280_pressure;Samples;Min_cycle;Max_cycle;Signal;HPM_P1;HPM_P2
2022/03/14 00:01:41;;;;;;;10.88;4.30;;;;;;;3.92;42.78;101256.66;6050764;28;20026;-69
2022/03/14 00:04:38;;;;;;;8.37;3.80;;;;;;;3.89;42.05;101255.06;6031334;28;20027;-71
2022/03/14 00:07:36;;;;;;;7.00;3.95;;;;;;;3.82;43.25;101255.50;6027812;28;20550;-71
2022/03/14 00:10:32;;;;;;;13.25;4.43;;;;;;;3.75;43.04;101252.38;6026256;28;20026;-70
2022/03/14 00:13:28;;;;;;;8.00;4.05;;;;;;;3.72;43.07;101267.47;6026666;28;20084;-72
2022/03/14 00:16:25;;;;;;;9.82;4.20;;;;;;;3.53;43.51;101255.41;6037741;28;20041;-69
2022/03/14 00:19:21;;;;;;;11.32;3.90;;;;;;;3.46;43.67;101264.56;6050892;28;20424;-71
2022/03/14 00:22:17;;;;;;;9.02;3.85;;;;;;;3.43;44.01;101271.75;6039185;28;20026;-71
2022/03/14 00:25:13;;;;;;;11.57;4.00;;;;;;;3.32;44.19;101279.38;6028680;28;20373;-73
2022/03/14 00:28:08;;;;;;;12.10;4.43;;;;;;;3.21;44.81;101272.13;6034408;28;20030;-70
2022/03/14 00:31:03;;;;;;;14.02;4.45;;;;;;;3.15;45.12;101282.09;6026670;28;20138;-70
2022/03/14 00:33:59;;;;;;;11.73;4.53;;;;;;;3.11;45.48;101293.66;6026453;28;20129;-69
2022/03/14 00:36:55;;;;;;;10.47;4.20;;;;;;;2.86;45.92;101286.31;6032649;28;20030;-71
2022/03/14 00:39:53;;;;;;;9.73;4.25;;;;;;;2.60;46.65;101289.47;6050600;28;20576;-72
2022/03/14 00:42:48;;;;;;;11.18;4.50;;;;;;;2.61;46.77;101296.41;6034799;28;20042;-71
2022/03/14 00:45:43;;;;;;;13.30;4.50;;;;;;;2.55;47.23;101296.75;6026947;28;20081;-71
2022/03/14 00:48:39;;;;;;;9.87;4.17;;;;;;;2.53;47.18;101296.78;6030096;28;20378;-73
2022/03/14 00:51:35;;;;;;;9.40;3.97;;;;;;;2.49;47.22;101290.06;6025748;28;20034;-69
2022/03/14 00:54:31;;;;;;;10.07;4.25;;;;;;;2.51;47.19;101282.09;6026013;28;20034;-72
2022/03/14 00:57:26;;;;;;;9.48;4.38;;;;;;;2.66;46.65;101278.69;6028150;28;20030;-74
2022/03/14 01:00:21;;;;;;;11.97;4.50;;;;;;;2.70;46.40;101278.44;6034409;28;20031;-72
2022/03/14 01:03:16;;;;;;;8.40;3.90;;;;;;;2.72;46.06;101280.97;6025724;28;20278;-71
2022/03/14 01:06:12;;;;;;;9.63;3.93;;;;;;;2.77;45.80;101279.78;6026067;28;20038;-71
2022/03/14 01:09:07;;;;;;;7.87;3.63;;;;;;;2.82;45.38;101276.94;6026462;28;20406;-69
2022/03/14 01:12:03;;;;;;;9.32;3.78;;;;;;;2.91;45.10;101279.88;6040551;28;20476;-71
2022/03/14 01:14:59;;;;;;;7.70;3.53;;;;;;;2.79;46.06;101284.97;6029452;28;21773;-71
2022/03/14 01:17:55;;;;;;;8.73;3.47;;;;;;;2.69;45.62;101287.19;6026157;28;20065;-71
2022/03/14 01:20:50;;;;;;;12.57;3.95;;;;;;;2.69;45.64;101284.59;6025409;28;20397;-71
2022/03/14 01:23:45;;;;;;;10.30;3.83;;;;;;;2.68;45.83;101295.16;6034279;28;20070;-69
2022/03/14 01:26:40;;;;;;;8.37;3.70;;;;;;;2.62;46.44;101291.09;6030721;28;20036;-72
2022/03/14 01:29:37;;;;;;;12.90;4.20;;;;;;;2.59;46.46;101290.41;6036623;28;20026;-70
2022/03/14 01:32:32;;;;;;;10.20;4.38;;;;;;;2.57;46.15;101297.50;6025265;28;20047;-70
2022/03/14 01:35:27;;;;;;;9.47;4.17;;;;;;;2.50;46.02;101301.38;6026654;28;20041;-70
2022/03/14 01:38:23;;;;;;;10.48;4.25;;;;;;;2.44;46.53;101299.06;6044120;28;20465;-71
2022/03/14 01:41:18;;;;;;;13.33;3.93;;;;;;;2.32;46.88;101292.69;6033981;28;20053;-71
2022/03/14 01:44:14;;;;;;;9.07;4.03;;;;;;;2.40;46.45;101296.59;6013100;28;20481;-71
2022/03/14 01:47:09;;;;;;;12.40;4.40;;;;;;;2.29;47.50;101309.41;6035662;28;20574;-71
2022/03/14 01:50:05;;;;;;;11.57;3.97;;;;;;;2.19;47.64;101305.56;6031856;28;20270;-70
2022/03/14 01:53:01;;;;;;;7.47;3.67;;;;;;;2.18;47.21;101303.00;6024977;28;20022;-69
2022/03/14 01:55:56;;;;;;;11.85;4.80;;;;;;;2.11;47.35;101307.72;6030127;28;20030;-70
2022/03/14 01:58:52;;;;;;;10.40;3.77;;;;;;;2.05;48.22;101309.78;6026296;28;20088;-71
2022/03/14 02:01:48;;;;;;;7.95;3.97;;;;;;;2.02;48.17;101310.81;6038668;28;20018;-72
2022/03/14 02:04:43;;;;;;;8.33;4.03;;;;;;;1.97;48.18;101319.78;6035086;28;20381;-69
2022/03/14 02:07:38;;;;;;;8.43;3.85;;;;;;;1.78;48.43;101315.50;6029254;28;20031;-71
2022/03/14 02:10:38;;;;;;;10.90;4.23;;;;;;;1.75;49.11;101317.41;6028225;28;20058;-72
2022/03/14 02:13:33;;;;;;;8.80;3.30;;;;;;;1.78;49.45;101317.25;6020519;28;20022;-71
2022/03/14 02:16:29;;;;;;;9.70;4.90;;;;;;;1.61;49.61;101322.44;6021193;28;20041;-71
2022/03/14 02:19:24;;;;;;;9.48;4.20;;;;;;;1.59;49.77;101319.06;6030492;28;20053;-69
2022/03/14 02:22:19;;;;;;;9.37;3.93;;;;;;;1.60;49.87;101318.16;6028748;28;20026;-73
2022/03/14 02:25:15;;;;;;;9.50;3.83;;;;;;;1.52;49.70;101325.53;6029557;28;20022;-71
2022/03/14 02:28:11;;;;;;;10.43;4.15;;;;;;;1.45;50.24;101322.34;6035118;28;20270;-71
2022/03/14 02:31:06;;;;;;;8.93;3.63;;;;;;;1.53;49.91;101320.22;6029664;28;20022;-71
2022/03/14 02:34:06;;;;;;;11.93;4.18;;;;;;;1.45;50.64;101314.50;6029183;28;20041;-72
2022/03/14 02:37:03;;;;;;;10.70;4.35;;;;;;;1.47;50.63;101319.69;6028706;28;20041;-71
2022/03/14 02:39:58;;;;;;;9.23;3.95;;;;;;;1.40;50.54;101316.50;6029787;28;20030;-72
2022/03/14 02:42:53;;;;;;;9.27;3.70;;;;;;;1.48;50.88;101323.97;6042332;28;20029;-72
2022/03/14 02:45:49;;;;;;;8.57;4.40;;;;;;;1.46;50.09;101328.44;6028849;28;20022;-70
2022/03/14 02:48:44;;;;;;;11.07;4.07;;;;;;;1.51;49.44;101327.28;6029099;28;20366;-70
2022/03/14 02:51:40;;;;;;;6.97;3.17;;;;;;;1.50;49.69;101322.97;6028246;28;20034;-71
2022/03/14 02:54:35;;;;;;;10.63;3.85;;;;;;;1.50;49.86;101332.56;6032983;28;20041;-69
2022/03/14 02:57:31;;;;;;;10.93;4.28;;;;;;;1.58;49.44;101338.28;6031663;28;20033;-72
2022/03/14 03:00:26;;;;;;;11.27;4.70;;;;;;;1.41;50.06;101343.47;6052139;28;20342;-70
2022/03/14 03:03:21;;;;;;;9.87;3.70;;;;;;;1.47;50.07;101346.63;6035752;28;20033;-73
2022/03/14 03:06:22;;;;;;;9.13;3.43;;;;;;;1.48;50.15;101350.94;6041299;28;20417;-70
2022/03/14 03:09:18;;;;;;;8.85;4.35;;;;;;;1.32;50.16;101362.19;6028817;28;20034;-69
2022/03/14 03:12:14;;;;;;;9.30;4.03;;;;;;;1.23;50.31;101363.44;6027696;28;20084;-71
2022/03/14 03:15:15;;;;;;;11.05;3.35;;;;;;;1.16;50.47;101355.06;6027741;28;20501;-71
2022/03/14 03:18:11;;;;;;;8.50;3.33;;;;;;;1.11;50.83;101351.78;6029091;28;20034;-71
2022/03/14 03:21:07;;;;;;;10.32;4.22;;;;;;;1.16;50.80;101360.28;6051002;28;20057;-70
2022/03/14 03:24:04;;;;;;;12.87;4.43;;;;;;;1.04;51.35;101366.06;6039064;28;20026;-71
2022/03/14 03:27:00;;;;;;;9.70;4.45;;;;;;;1.04;51.43;101363.44;6032521;28;20017;-72
2022/03/14 03:29:55;;;;;;;7.57;3.77;;;;;;;1.16;50.86;101375.97;6045603;28;20034;-69
2022/03/14 03:32:50;;;;;;;9.03;3.43;;;;;;;1.07;50.90;101376.38;6027992;28;20033;-71
2022/03/14 03:35:46;;;;;;;9.00;3.97;;;;;;;0.95;51.46;101376.91;6027694;28;20034;-72
2022/03/14 03:38:41;;;;;;;11.27;4.33;;;;;;;0.96;51.40;101372.53;6027995;28;20955;-71
2022/03/14 03:41:38;;;;;;;10.70;3.73;;;;;;;0.92;51.53;101374.47;6042665;28;20311;-69
2022/03/14 03:44:34;;;;;;;11.13;4.47;;;;;;;0.94;51.64;101392.66;6038663;28;20265;-72
2022/03/14 03:47:30;;;;;;;9.43;4.30;;;;;;;0.95;51.32;101386.53;6026950;28;20030;-71
2022/03/14 03:50:25;;;;;;;10.93;3.87;;;;;;;0.98;51.48;101391.63;6028237;28;20045;-69
2022/03/14 03:53:20;;;;;;;13.60;4.87;;;;;;;0.93;51.73;101398.78;6044328;28;20080;-73
2022/03/14 03:56:16;;;;;;;9.85;4.22;;;;;;;0.86;51.97;101393.00;6027670;28;20064;-70
2022/03/14 03:59:11;;;;;;;10.88;4.30;;;;;;;0.79;52.24;101391.56;6027604;28;20022;-69
2022/03/14 04:02:08;;;;;;;9.03;3.93;;;;;;;0.81;52.66;101392.38;6025763;28;20109;-69
2022/03/14 04:05:05;;;;;;;11.05;3.80;;;;;;;0.63;52.90;101385.31;6026539;28;20281;-71
2022/03/14 04:08:01;;;;;;;7.82;3.80;;;;;;;0.71;53.31;101398.06;6027436;28;20062;-71
2022/03/14 04:10:58;;;;;;;10.07;4.25;;;;;;;0.64;53.35;101392.25;6022167;28;20447;-71
2022/03/14 04:13:57;;;;;;;14.57;4.47;;;;;;;0.58;53.49;101393.34;6026860;28;20030;-70
2022/03/14 04:16:54;;;;;;;10.52;3.60;;;;;;;0.53;53.68;101395.31;6028270;28;20033;-70
2022/03/14 04:19:50;;;;;;;13.00;4.15;;;;;;;0.45;54.11;101393.94;6050829;28;20029;-69
2022/03/14 04:22:45;;;;;;;12.38;4.90;;;;;;;0.51;53.78;101391.09;6032847;28;20413;-68
2022/03/14 04:25:41;;;;;;;11.70;4.25;;;;;;;0.45;54.19;101397.41;6026703;28;20034;-71
2022/03/14 04:28:36;;;;;;;9.52;4.30;;;;;;;0.38;55.01;101400.34;6038461;28;20425;-71
2022/03/14 04:31:31;;;;;;;10.63;3.95;;;;;;;0.31;55.29;101406.72;6031138;28;20038;-70
2022/03/14 04:34:27;;;;;;;11.15;3.92;;;;;;;0.31;55.35;101401.50;6027015;28;20426;-69
2022/03/14 04:37:22;;;;;;;10.27;4.70;;;;;;;0.30;55.12;101413.69;6026696;28;20474;-69
2022/03/14 04:40:17;;;;;;;13.50;4.65;;;;;;;0.33;55.38;101407.50;6024994;28;20378;-71
2022/03/14 04:43:13;;;;;;;7.97;3.97;;;;;;;0.29;55.67;101406.78;6026686;28;20117;-70
2022/03/14 04:46:08;;;;;;;13.40;4.40;;;;;;;0.26;55.30;101404.31;6025949;28;20768;-73
2022/03/14 04:49:08;;;;;;;10.77;5.40;;;;;;;0.37;55.45;101409.06;6026921;28;20037;-72
2022/03/14 04:52:04;;;;;;;8.98;4.28;;;;;;;0.37;55.15;101412.53;6018062;28;20033;-73
2022/03/14 04:55:00;;;;;;;11.30;4.07;;;;;;;0.35;55.26;101414.38;6026093;28;20030;-72
2022/03/14 04:57:55;;;;;;;9.98;4.32;;;;;;;0.35;55.52;101418.72;6026763;28;20069;-72
2022/03/14 05:00:50;;;;;;;12.30;4.22;;;;;;;0.28;55.76;101410.31;6028292;28;20037;-72
2022/03/14 05:03:46;;;;;;;9.97;4.53;;;;;;;0.13;56.36;101410.09;6033432;28;20033;-73
2022/03/14 05:06:42;;;;;;;10.98;4.55;;;;;;;0.13;56.50;101410.94;6044242;28;20025;-72
2022/03/14 05:09:38;;;;;;;10.63;4.38;;;;;;;0.16;56.43;101407.38;6044399;28;20034;-73
2022/03/14 05:12:34;;;;;;;11.07;5.30;;;;;;;0.18;56.63;101408.16;6029764;28;20125;-72
2022/03/14 05:15:30;;;;;;;13.18;5.35;;;;;;;0.05;56.85;101409.56;6024820;28;20277;-71
2022/03/14 05:18:25;;;;;;;10.20;4.03;;;;;;;0.02;57.54;101417.50;6026846;28;20030;-71
2022/03/14 05:21:20;;;;;;;11.77;4.85;;;;;;;-0.04;57.66;101411.63;6036313;28;20026;-71
2022/03/14 05:24:16;;;;;;;8.07;4.33;;;;;;;-0.07;57.69;101418.72;6028448;28;20042;-70
2022/03/14 05:27:12;;;;;;;13.83;4.83;;;;;;;-0.11;57.98;101424.97;6047937;28;20076;-70
2022/03/14 05:30:08;;;;;;;10.95;4.80;;;;;;;-0.23;58.53;101431.50;6048948;28;20042;-73
2022/03/14 05:33:03;;;;;;;13.02;4.45;;;;;;;-0.21;58.33;101431.44;6049963;28;20026;-70
2022/03/14 05:35:59;;;;;;;11.27;4.90;;;;;;;-0.22;58.79;101424.56;6029339;28;20037;-71
2022/03/14 05:38:54;;;;;;;9.85;4.32;;;;;;;-0.09;59.16;101426.59;6028742;28;20026;-72
2022/03/14 05:41:49;;;;;;;13.63;5.50;;;;;;;-0.19;59.04;101440.88;6037352;28;20488;-70
2022/03/14 05:44:45;;;;;;;11.63;4.90;;;;;;;-0.27;59.20;101440.34;6033692;28;20030;-72
2022/03/14 05:47:41;;;;;;;13.20;5.55;;;;;;;-0.18;59.14;101440.00;6046756;28;20022;-71
2022/03/14 05:50:36;;;;;;;13.48;4.80;;;;;;;-0.09;58.64;101441.38;6035644;28;20033;-70
2022/03/14 05:53:32;;;;;;;15.50;5.23;;;;;;;0.03;58.06;101453.09;6032980;28;20117;-72
2022/03/14 05:56:27;;;;;;;14.90;5.93;;;;;;;0.09;57.73;101435.44;6033882;28;20022;-73
2022/03/14 05:59:22;;;;;;;13.00;6.17;;;;;;;0.24;56.92;101449.63;6033449;28;20085;-70
2022/03/14 06:02:22;;;;;;;19.80;6.23;;;;;;;0.34;56.70;101454.38;6033178;28;20385;-72
2022/03/14 06:05:19;;;;;;;18.23;6.82;;;;;;;0.38;56.65;101452.50;6041332;28;20029;-72
2022/03/14 06:08:15;;;;;;;16.30;6.28;;;;;;;0.46;56.52;101451.25;6039712;28;20030;-71
2022/03/14 06:11:11;;;;;;;19.15;6.05;;;;;;;0.62;56.29;101455.84;6033351;28;20049;-72
2022/03/14 06:14:07;;;;;;;16.50;6.13;;;;;;;0.74;56.27;101445.72;6033481;28;20045;-71
2022/03/14 06:17:02;;;;;;;16.23;6.18;;;;;;;0.82;55.80;101469.72;6033652;28;20033;-72
2022/03/14 06:19:57;;;;;;;17.25;6.20;;;;;;;0.84;55.78;101452.28;6046662;28;20026;-73
2022/03/14 06:22:53;;;;;;;18.77;6.57;;;;;;;0.97;55.84;101469.09;6038410;28;20033;-73
2022/03/14 06:25:49;;;;;;;18.77;6.97;;;;;;;1.15;54.47;101463.06;6033370;28;20038;-72
2022/03/14 06:28:45;;;;;;;17.83;5.80;;;;;;;1.43;54.46;101474.88;6038620;28;20149;-73
2022/03/14 06:31:40;;;;;;;13.70;5.77;;;;;;;1.54;53.71;101483.09;6049755;28;20069;-71
2022/03/14 06:34:39;;;;;;;14.90;6.33;;;;;;;1.67;53.02;101486.81;6033254;28;20435;-72
2022/03/14 06:37:34;;;;;;;17.90;6.22;;;;;;;1.97;53.02;101487.16;6032934;28;20057;-71
2022/03/14 06:40:29;;;;;;;10.63;4.93;;;;;;;2.18;52.07;101497.44;6032153;28;20030;-70
2022/03/14 06:43:25;;;;;;;17.75;6.50;;;;;;;2.32;51.42;101502.88;6032451;28;20161;-71
2022/03/14 06:46:20;;;;;;;17.70;6.78;;;;;;;2.48;50.93;101502.09;6050072;28;20496;-73
2022/03/14 06:49:16;;;;;;;14.23;5.67;;;;;;;2.65;51.13;101505.59;6034799;28;20030;-74
2022/03/14 06:52:12;;;;;;;21.75;6.18;;;;;;;3.07;49.78;101512.22;6026486;28;20030;-70
2022/03/14 06:55:08;;;;;;;16.23;6.50;;;;;;;3.32;49.89;101500.38;6021606;28;20037;-72
2022/03/14 06:58:04;;;;;;;16.02;6.45;;;;;;;3.64;48.15;101505.69;6028431;28;20084;-72
2022/03/14 07:00:59;;;;;;;14.93;6.00;;;;;;;3.87;48.11;101505.28;6038120;28;20426;-73
2022/03/14 07:03:54;;;;;;;17.00;6.73;;;;;;;4.13;47.21;101515.22;6044043;28;20026;-70
2022/03/14 07:06:50;;;;;;;13.00;5.68;;;;;;;4.62;45.67;101526.41;6043285;28;20058;-70
2022/03/14 07:09:45;;;;;;;13.47;6.27;;;;;;;4.75;45.19;101527.38;6031413;28;20026;-71
2022/03/14 07:12:46;;;;;;;15.98;6.53;;;;;;;4.71;45.04;101526.72;6041735;28;20026;-70
2022/03/14 07:15:41;;;;;;;14.60;6.03;;;;;;;4.94;44.46;101524.53;6023569;28;20089;-73
2022/03/14 07:18:37;;;;;;;16.33;6.45;;;;;;;5.06;44.06;101544.81;6044585;28;20485;-70
2022/03/14 07:21:34;;;;;;;12.57;5.65;;;;;;;5.05;43.25;101544.00;6037306;28;20034;-70
2022/03/14 07:24:29;;;;;;;17.38;7.30;;;;;;;5.08;44.17;101545.59;6028867;28;20046;-72
2022/03/14 07:27:24;;;;;;;17.52;7.38;;;;;;;5.28;45.30;101543.47;6028762;28;20477;-70
2022/03/14 07:30:21;;;;;;;18.47;6.37;;;;;;;5.38;45.74;101544.59;6039273;28;20038;-71
2022/03/14 07:33:16;;;;;;;16.35;6.55;;;;;;;5.56;45.86;101553.16;6049051;28;20524;-72
2022/03/14 07:36:12;;;;;;;22.88;6.88;;;;;;;5.42;45.39;101561.03;6052256;28;20037;-70
2022/03/14 07:39:08;;;;;;;19.13;7.00;;;;;;;5.51;45.86;101573.66;6052004;28;20033;-70
2022/03/14 07:42:03;;;;;;;19.27;7.00;;;;;;;5.40;46.60;101569.03;6043980;28;20034;-69
2022/03/14 07:44:58;;;;;;;17.77;6.30;;;;;;;5.74;46.09;101575.72;6047321;28;20030;-69
2022/03/14 07:47:55;;;;;;;19.30;7.30;;;;;;;6.18;45.29;101575.63;6033108;28;20026;-71
2022/03/14 07:50:52;;;;;;;11.63;6.70;;;;;;;6.45;42.96;101573.00;6027458;28;20462;-69
2022/03/14 07:53:47;;;;;;;14.75;6.30;;;;;;;6.66;41.72;101573.44;6028018;28;20033;-70
2022/03/14 07:56:43;;;;;;;10.40;5.83;;;;;;;7.20;39.71;101570.59;6027957;28;20030;-71
2022/03/14 07:59:39;;;;;;;12.88;6.97;;;;;;;7.52;39.95;101575.50;6047715;28;20022;-70
2022/03/14 08:02:35;;;;;;;13.63;6.03;;;;;;;7.99;38.65;101580.13;6050742;28;20072;-69
2022/03/14 08:05:30;;;;;;;14.18;6.28;;;;;;;7.84;38.66;101575.88;6033820;28;20026;-70
2022/03/14 08:08:26;;;;;;;12.43;5.53;;;;;;;7.93;39.29;101573.47;6039484;28;20072;-69
2022/03/14 08:11:29;;;;;;;13.85;5.97;;;;;;;8.08;39.72;101572.38;6041051;28;20378;-71
2022/03/14 08:14:24;;;;;;;11.75;5.25;;;;;;;8.29;39.20;101568.22;6030450;28;20022;-70
2022/03/14 08:17:19;;;;;;;13.00;6.13;;;;;;;8.48;39.88;101573.00;6030747;28;20666;-70
2022/03/14 08:20:15;;;;;;;12.38;6.43;;;;;;;8.38;40.03;101561.44;6031356;28;20033;-71
2022/03/14 08:23:11;;;;;;;13.75;5.57;;;;;;;8.58;40.17;101567.91;6026364;28;20026;-71
2022/03/14 08:26:07;;;;;;;14.73;6.53;;;;;;;8.58;39.99;101565.28;6030693;28;20022;-71
2022/03/14 08:29:03;;;;;;;17.95;6.22;;;;;;;8.52;41.21;101579.78;6036816;28;20045;-70
2022/03/14 08:31:59;;;;;;;16.50;6.32;;;;;;;8.62;40.99;101579.94;6031114;28;20603;-72
2022/03/14 08:34:54;;;;;;;13.52;6.10;;;;;;;9.03;41.13;101585.66;6051004;28;20489;-69
2022/03/14 08:37:51;;;;;;;11.82;6.22;;;;;;;9.13;41.57;101597.22;6027092;28;20022;-72
2022/03/14 08:40:47;;;;;;;21.05;7.10;;;;;;;9.45;41.59;101594.81;6026630;28;20038;-70
2022/03/14 08:43:43;;;;;;;18.45;6.10;;;;;;;9.40;42.26;101591.69;6036053;28;20057;-68
2022/03/14 08:46:39;;;;;;;12.02;6.05;;;;;;;9.21;43.94;101589.59;6043802;28;20140;-70
2022/03/14 08:49:34;;;;;;;13.57;6.63;;;;;;;9.22;44.56;101599.19;6031028;28;20030;-70
2022/03/14 08:52:30;;;;;;;15.73;6.95;;;;;;;9.48;45.18;101595.41;6035779;28;20026;-73
2022/03/14 08:55:25;;;;;;;14.40;6.47;;;;;;;9.41;45.67;101607.44;6026326;28;20034;-71
2022/03/14 08:58:21;;;;;;;16.42;7.97;;;;;;;9.31;46.94;101595.03;6038563;28;20257;-71
2022/03/14 09:01:17;;;;;;;20.63;7.60;;;;;;;9.34;47.79;101600.94;6026521;28;20509;-73
2022/03/14 09:04:12;;;;;;;15.70;7.00;;;;;;;9.30;48.97;101596.81;6025292;28;20018;-73
2022/03/14 09:07:08;;;;;;;16.67;7.07;;;;;;;9.29;49.83;101602.25;6027802;28;20022;-70
2022/03/14 09:10:12;;;;;;;18.25;6.95;;;;;;;9.38;49.27;101607.66;6030697;28;20092;-72
2022/03/14 09:13:07;;;;;;;12.05;6.65;;;;;;;9.43;49.54;101607.34;6030550;28;20030;-71
2022/03/14 09:16:04;;;;;;;18.17;8.37;;;;;;;9.52;50.91;101610.09;6028758;28;20577;-70
2022/03/14 09:18:59;;;;;;;15.15;7.35;;;;;;;10.11;49.39;101608.09;6026302;28;20261;-72
2022/03/14 09:21:56;;;;;;;14.07;7.07;;;;;;;10.31;48.29;101609.22;6038882;28;20029;-71
2022/03/14 09:24:53;;;;;;;17.13;8.15;;;;;;;9.83;47.88;101616.56;6025308;28;20027;-72
2022/03/14 09:27:51;;;;;;;16.52;8.63;;;;;;;9.82;48.45;101621.94;6025546;28;20038;-69
2022/03/14 09:30:47;;;;;;;15.32;7.32;;;;;;;9.92;48.67;101622.94;6028780;28;20080;-73
2022/03/14 09:33:43;;;;;;;19.88;7.68;;;;;;;9.77;48.79;101624.97;6024876;28;20038;-73
2022/03/14 09:36:39;;;;;;;18.90;7.82;;;;;;;9.54;49.27;101633.81;6020294;28;20034;-72
2022/03/14 09:39:34;;;;;;;13.97;7.07;;;;;;;9.40;49.93;101648.09;6041135;28;20049;-70
2022/03/14 09:42:29;;;;;;;16.70;7.72;;;;;;;9.27;50.94;101652.63;6037776;28;20263;-70
2022/03/14 09:45:26;;;;;;;14.05;7.45;;;;;;;9.67;50.35;101658.44;6048552;28;20033;-70
2022/03/14 09:48:23;;;;;;;15.27;7.63;;;;;;;9.62;51.43;101657.09;6025622;28;20042;-74
2022/03/14 09:51:18;;;;;;;16.45;7.15;;;;;;;9.63;52.65;101648.16;6025400;28;20061;-71
2022/03/14 09:54:14;;;;;;;16.38;7.63;;;;;;;9.46;55.63;101662.66;6057485;28;20462;-71
2022/03/14 09:57:09;;;;;;;16.42;7.13;;;;;;;9.38;56.13;101673.84;6025433;28;20397;-72
2022/03/14 10:00:06;;;;;;;17.85;6.95;;;;;;;9.26;57.02;101674.78;6025388;28;20101;-69
2022/03/14 10:03:03;;;;;;;15.68;7.43;;;;;;;9.30;56.78;101688.59;6028828;28;20037;-68
2022/03/14 10:05:58;;;;;;;18.90;7.65;;;;;;;9.44;55.94;101691.06;6025850;28;20128;-72
2022/03/14 10:08:53;;;;;;;14.07;7.33;;;;;;;9.30;55.40;101685.97;6025705;28;20026;-70
2022/03/14 10:11:49;;;;;;;14.90;6.93;;;;;;;9.35;55.49;101692.59;6025327;28;20034;-68
2022/03/14 10:14:45;;;;;;;16.92;7.30;;;;;;;9.36;55.53;101694.28;6049541;28;20057;-72
2022/03/14 10:17:40;;;;;;;16.77;7.60;;;;;;;9.54;55.04;101692.06;6027937;28;20462;-69
2022/03/14 10:20:36;;;;;;;20.00;7.78;;;;;;;9.36;55.77;101710.19;6024568;28;20045;-69
2022/03/14 10:23:36;;;;;;;13.95;7.15;;;;;;;9.54;56.03;101708.78;6024220;28;20034;-73
2022/03/14 10:26:33;;;;;;;17.35;7.45;;;;;;;9.48;56.04;101709.25;6019894;28;20022;-71
2022/03/14 10:29:30;;;;;;;16.35;7.63;;;;;;;9.74;56.02;101709.09;6047682;28;20124;-71
2022/03/14 10:32:30;;;;;;;18.67;8.07;;;;;;;9.66;56.90;101712.34;6049405;28;20381;-69
2022/03/14 10:35:26;;;;;;;15.90;7.47;;;;;;;9.94;56.65;101709.28;6053834;28;20021;-70
2022/03/14 10:38:21;;;;;;;18.53;7.80;;;;;;;10.09;56.95;101715.19;6038591;28;20030;-70
2022/03/14 10:41:17;;;;;;;13.77;6.85;;;;;;;10.06;58.42;101720.72;6029656;28;20656;-71
2022/03/14 10:44:23;;;;;;;8.13;4.60;;;;;;;9.97;63.31;101721.47;6042884;28;20030;-70
2022/03/14 10:47:19;;;;;;;9.40;4.38;;;;;;;9.70;65.70;101734.16;6048906;28;20019;-71
2022/03/14 10:50:31;;;;;;;9.48;4.47;;;;;;;9.47;67.28;101743.78;6028854;28;20034;-70
2022/03/14 10:53:27;;;;;;;9.45;4.65;;;;;;;9.57;68.50;101755.38;6050494;28;20044;-69
2022/03/14 10:56:27;;;;;;;9.47;4.50;;;;;;;9.56;69.76;101754.56;6030844;28;20054;-70
2022/03/14 10:59:32;;;;;;;8.95;4.65;;;;;;;9.50;71.18;101762.09;6029377;28;20018;-68
2022/03/14 11:02:28;;;;;;;9.18;4.53;;;;;;;9.11;73.76;101763.22;6028822;28;20037;-72
2022/03/14 11:05:23;;;;;;;10.65;5.40;;;;;;;8.96;74.92;101753.75;6029013;28;20458;-71
2022/03/14 11:08:35;;;;;;;9.20;4.77;;;;;;;8.94;76.63;101759.13;6029357;28;20030;-68
2022/03/14 11:11:30;;;;;;;10.43;4.90;;;;;;;8.85;78.27;101761.59;6030264;28;20033;-72
2022/03/14 11:14:27;;;;;;;11.53;5.70;;;;;;;8.94;78.66;101766.25;6051373;28;20033;-74
2022/03/14 11:17:28;;;;;;;10.70;5.10;;;;;;;9.16;79.12;101776.94;6052634;28;20014;-72
2022/03/14 11:20:23;;;;;;;9.98;5.22;;;;;;;9.53;78.43;101768.03;6035152;28;20128;-70
2022/03/14 11:23:19;;;;;;;11.20;5.47;;;;;;;9.50;78.96;101760.31;6029622;28;20065;-74
2022/03/14 11:26:18;;;;;;;14.13;5.60;;;;;;;9.38;78.73;101766.50;6048814;28;20054;-72
2022/03/14 11:29:15;;;;;;;11.98;6.15;;;;;;;9.36;79.72;101763.13;6027978;28;20049;-72
2022/03/14 11:32:11;;;;;;;13.82;5.80;;;;;;;9.37;78.78;101767.47;6040399;28;20108;-71
2022/03/14 11:35:08;;;;;;;10.05;4.97;;;;;;;9.42;78.50;101762.69;6046589;28;20032;-72
2022/03/14 11:38:04;;;;;;;10.40;5.43;;;;;;;9.37;77.84;101767.47;6036154;28;20057;-72
2022/03/14 11:41:00;;;;;;;12.15;5.90;;;;;;;9.44;77.75;101754.59;6025705;28;20046;-74
2022/03/14 11:43:56;;;;;;;9.98;4.85;;;;;;;9.43;78.30;101753.75;6028178;28;20027;-71
2022/03/14 11:46:55;;;;;;;8.95;4.70;;;;;;;9.37;77.82;101758.69;6042907;28;20041;-70
2022/03/14 11:49:51;;;;;;;8.18;4.38;;;;;;;9.31;78.26;101770.56;6028343;28;20030;-73
2022/03/14 11:52:50;;;;;;;15.23;4.97;;;;;;;9.07;79.78;101764.41;6027513;28;20367;-71
2022/03/14 11:55:52;;;;;;;9.43;4.78;;;;;;;9.13;79.98;101774.50;6031516;28;20458;-71
2022/03/14 11:58:48;;;;;;;10.05;4.85;;;;;;;8.96;80.11;101775.75;6017591;28;20030;-74
2022/03/14 12:01:48;;;;;;;8.37;4.57;;;;;;;8.83;80.69;101763.50;6028693;28;20038;-74
2022/03/14 12:04:43;;;;;;;9.77;5.03;;;;;;;8.67;81.22;101779.59;6033081;28;20038;-73
2022/03/14 12:07:38;;;;;;;9.73;4.70;;;;;;;8.62;82.07;101772.94;6027288;28;20033;-72
2022/03/14 12:10:35;;;;;;;10.40;5.00;;;;;;;8.57;83.13;101775.06;6032401;28;20487;-73
2022/03/14 12:13:46;;;;;;;12.35;5.13;;;;;;;8.54;82.56;101772.63;6038996;28;20278;-71
2022/03/14 12:16:44;;;;;;;10.60;5.03;;;;;;;8.66;82.34;101772.63;6045036;28;20022;-71
2022/03/14 12:19:42;;;;;;;10.32;4.35;;;;;;;8.65;83.27;101781.50;6026869;28;20034;-70
2022/03/14 12:22:39;;;;;;;10.15;5.20;;;;;;;8.55;83.33;101790.19;6030457;28;20069;-72
2022/03/14 12:25:40;;;;;;;10.68;4.57;;;;;;;8.43;83.91;101796.31;6046813;28;20025;-74
2022/03/14 12:28:37;;;;;;;11.45;5.22;;;;;;;8.28;84.62;101798.22;6048661;28;20061;-74
2022/03/14 12:31:32;;;;;;;10.35;4.32;;;;;;;8.16;85.29;101797.22;6029704;28;20481;-73
2022/03/14 12:34:29;;;;;;;11.98;5.45;;;;;;;8.04;86.42;101806.00;6037911;28;20026;-71
2022/03/14 12:37:26;;;;;;;9.55;4.82;;;;;;;8.01;87.36;101794.78;6026058;28;20034;-71
2022/03/14 12:40:21;;;;;;;11.18;4.63;;;;;;;7.96;88.07;101807.44;6038147;28;20485;-72
2022/03/14 12:43:25;;;;;;;10.13;5.20;;;;;;;7.97;88.86;101807.34;6027020;28;20053;-70
2022/03/14 12:46:21;;;;;;;11.85;4.95;;;;;;;8.00;88.63;101808.91;6026469;28;20026;-72
2022/03/14 12:49:38;;;;;;;7.43;3.87;;;;;;;7.99;89.26;101818.63;6028593;28;20253;-71
2022/03/14 12:52:59;;;;;;;9.05;4.07;;;;;;;8.00;89.01;101819.47;6024953;28;20269;-70
2022/03/14 12:55:55;;;;;;;7.88;4.18;;;;;;;7.93;90.01;101813.78;6027559;28;20145;-72
2022/03/14 12:59:07;;;;;;;9.35;4.13;;;;;;;7.97;90.44;101820.53;6026182;28;20044;-71
2022/03/14 13:02:02;;;;;;;8.13;3.67;;;;;;;7.97;90.01;101820.53;6038266;28;20030;-71
2022/03/14 13:05:00;;;;;;;7.63;3.50;;;;;;;7.93;90.02;101823.50;6033053;28;20720;-70
2022/03/14 13:08:02;;;;;;;7.95;3.40;;;;;;;7.80;89.92;101828.72;6034507;28;20057;-72
2022/03/14 13:11:00;;;;;;;7.97;3.53;;;;;;;7.86;89.81;101833.59;6034074;28;20057;-73
2022/03/14 13:14:00;;;;;;;7.25;3.63;;;;;;;7.80;90.29;101826.94;6029972;28;20030;-71
2022/03/14 13:16:56;;;;;;;8.38;3.75;;;;;;;7.79;90.34;101837.59;6032272;28;20377;-72
2022/03/14 13:19:52;;;;;;;8.23;3.58;;;;;;;7.79;91.36;101832.31;6026158;28;20030;-71
2022/03/14 13:22:47;;;;;;;9.95;4.18;;;;;;;7.77;91.31;101839.50;6024971;28;20338;-71
2022/03/14 13:25:47;;;;;;;7.87;3.80;;;;;;;7.79;90.75;101845.53;6044932;28;20026;-72
2022/03/14 13:28:42;;;;;;;7.88;3.95;;;;;;;7.83;91.31;101831.16;6028725;28;20466;-72
2022/03/14 13:31:43;;;;;;;6.73;3.40;;;;;;;7.79;91.11;101832.31;6028043;28;20045;-71
2022/03/14 13:34:38;;;;;;;8.00;3.95;;;;;;;7.85;91.34;101829.28;6038436;28;20381;-71
2022/03/14 13:37:44;;;;;;;8.57;3.90;;;;;;;7.88;91.08;101839.63;6026017;28;20045;-72
2022/03/14 13:40:43;;;;;;;9.48;4.00;;;;;;;7.85;91.47;101842.50;6035038;28;20060;-70
2022/03/14 13:43:41;;;;;;;10.70;4.50;;;;;;;7.84;91.95;101840.78;6047016;28;20040;-70